sensor_id;sensor_type;location;lat;lon;timestamp;P1;durP1;ratioP1;P2;durP2;ratioP2
65558;SDS011;52203;51.998;5.140;2023-08-30T00:00:17;9.90;;;5.88;;
65558;SDS011;52203;51.998;5.140;2023-08-30T00:02:45;11.45;;;6.13;;
65558;SDS011;52203;51.998;5.140;2023-08-30T00:05:12;12.13;;;6.10;;
65558;SDS011;52203;51.998;5.140;2023-08-30T00:07:38;11.20;;;6.18;;
65558;SDS011;52203;51.998;5.140;2023-08-30T00:10:05;10.85;;;5.97;;
65558;SDS011;52203;51.998;5.140;2023-08-30T00:12:33;13.38;;;5.88;;
65558;SDS011;52203;51.998;5.140;2023-08-30T00:14:58;10.32;;;5.30;;
65558;SDS011;52203;51.998;5.140;2023-08-30T00:17:24;12.02;;;5.68;;
65558;SDS011;52203;51.998;5.140;2023-08-30T00:19:50;11.63;;;6.20;;
65558;SDS011;52203;51.998;5.140;2023-08-30T00:22:17;10.68;;;5.68;;
65558;SDS011;52203;51.998;5.140;2023-08-30T00:24:43;11.02;;;5.88;;
65558;SDS011;52203;51.998;5.140;2023-08-30T00:27:10;10.02;;;5.38;;
65558;SDS011;52203;51.998;5.140;2023-08-30T00:29:36;11.98;;;5.55;;
65558;SDS011;52203;51.998;5.140;2023-08-30T00:32:01;9.88;;;5.53;;
65558;SDS011;52203;51.998;5.140;2023-08-30T00:34:27;10.95;;;5.57;;
65558;SDS011;52203;51.998;5.140;2023-08-30T00:36:52;12.23;;;6.43;;
65558;SDS011;52203;51.998;5.140;2023-08-30T00:39:18;10.55;;;6.00;;
65558;SDS011;52203;51.998;5.140;2023-08-30T00:41:43;11.45;;;6.10;;
65558;SDS011;52203;51.998;5.140;2023-08-30T00:44:09;12.48;;;6.70;;
65558;SDS011;52203;51.998;5.140;2023-08-30T00:46:35;12.38;;;6.65;;
65558;SDS011;52203;51.998;5.140;2023-08-30T00:49:01;11.25;;;5.55;;
65558;SDS011;52203;51.998;5.140;2023-08-30T00:51:28;11.20;;;6.63;;
65558;SDS011;52203;51.998;5.140;2023-08-30T00:53:54;12.63;;;6.70;;
65558;SDS011;52203;51.998;5.140;2023-08-30T00:56:20;12.30;;;7.05;;
65558;SDS011;52203;51.998;5.140;2023-08-30T00:58:47;11.35;;;6.90;;
65558;SDS011;52203;51.998;5.140;2023-08-30T01:01:14;11.45;;;6.65;;
65558;SDS011;52203;51.998;5.140;2023-08-30T01:03:40;15.43;;;7.25;;
65558;SDS011;52203;51.998;5.140;2023-08-30T01:06:06;10.32;;;6.15;;
65558;SDS011;52203;51.998;5.140;2023-08-30T01:08:32;12.10;;;7.13;;
65558;SDS011;52203;51.998;5.140;2023-08-30T01:11:03;12.93;;;7.15;;
65558;SDS011;52203;51.998;5.140;2023-08-30T01:13:37;11.93;;;7.22;;
65558;SDS011;52203;51.998;5.140;2023-08-30T01:16:18;13.27;;;6.72;;
65558;SDS011;52203;51.998;5.140;2023-08-30T01:18:46;10.70;;;6.45;;
65558;SDS011;52203;51.998;5.140;2023-08-30T01:21:14;14.50;;;6.97;;
65558;SDS011;52203;51.998;5.140;2023-08-30T01:23:58;11.38;;;6.85;;
65558;SDS011;52203;51.998;5.140;2023-08-30T01:29:27;14.38;;;7.05;;
65558;SDS011;52203;51.998;5.140;2023-08-30T01:31:55;11.93;;;6.97;;
65558;SDS011;52203;51.998;5.140;2023-08-30T01:34:21;12.00;;;7.15;;
65558;SDS011;52203;51.998;5.140;2023-08-30T01:36:47;15.30;;;8.23;;
65558;SDS011;52203;51.998;5.140;2023-08-30T01:39:14;12.88;;;8.10;;
65558;SDS011;52203;51.998;5.140;2023-08-30T01:41:41;12.95;;;7.57;;
65558;SDS011;52203;51.998;5.140;2023-08-30T01:44:07;14.18;;;7.63;;
65558;SDS011;52203;51.998;5.140;2023-08-30T01:46:33;15.07;;;8.05;;
65558;SDS011;52203;51.998;5.140;2023-08-30T01:49:01;12.35;;;7.57;;
65558;SDS011;52203;51.998;5.140;2023-08-30T01:51:29;13.82;;;7.85;;
65558;SDS011;52203;51.998;5.140;2023-08-30T01:53:55;13.88;;;8.05;;
65558;SDS011;52203;51.998;5.140;2023-08-30T01:56:22;15.07;;;8.52;;
65558;SDS011;52203;51.998;5.140;2023-08-30T01:58:48;14.38;;;8.23;;
65558;SDS011;52203;51.998;5.140;2023-08-30T02:01:14;16.85;;;8.55;;
65558;SDS011;52203;51.998;5.140;2023-08-30T02:03:43;16.50;;;8.13;;
65558;SDS011;52203;51.998;5.140;2023-08-30T02:06:11;16.75;;;8.25;;
65558;SDS011;52203;51.998;5.140;2023-08-30T02:09:29;15.30;;;8.13;;
65558;SDS011;52203;51.998;5.140;2023-08-30T02:11:43;15.82;;;8.05;;
65558;SDS011;52203;51.998;5.140;2023-08-30T02:14:11;17.13;;;8.38;;
65558;SDS011;52203;51.998;5.140;2023-08-30T02:16:42;17.95;;;8.93;;
65558;SDS011;52203;51.998;5.140;2023-08-30T02:19:10;15.15;;;7.47;;
65558;SDS011;52203;51.998;5.140;2023-08-30T02:21:37;16.88;;;8.00;;
65558;SDS011;52203;51.998;5.140;2023-08-30T02:24:03;16.42;;;8.70;;
65558;SDS011;52203;51.998;5.140;2023-08-30T02:26:29;16.20;;;7.78;;
65558;SDS011;52203;51.998;5.140;2023-08-30T02:28:54;16.42;;;8.35;;
65558;SDS011;52203;51.998;5.140;2023-08-30T02:31:20;14.82;;;7.88;;
65558;SDS011;52203;51.998;5.140;2023-08-30T02:33:46;17.98;;;9.00;;
65558;SDS011;52203;51.998;5.140;2023-08-30T02:36:11;15.63;;;8.63;;
65558;SDS011;52203;51.998;5.140;2023-08-30T02:38:37;16.17;;;8.30;;
65558;SDS011;52203;51.998;5.140;2023-08-30T02:41:02;16.98;;;9.38;;
65558;SDS011;52203;51.998;5.140;2023-08-30T02:43:28;17.58;;;9.30;;
65558;SDS011;52203;51.998;5.140;2023-08-30T02:45:53;16.65;;;8.93;;
65558;SDS011;52203;51.998;5.140;2023-08-30T02:48:19;18.15;;;8.98;;
65558;SDS011;52203;51.998;5.140;2023-08-30T02:50:45;16.05;;;8.63;;
65558;SDS011;52203;51.998;5.140;2023-08-30T02:53:10;17.40;;;8.75;;
65558;SDS011;52203;51.998;5.140;2023-08-30T02:55:36;15.15;;;8.07;;
65558;SDS011;52203;51.998;5.140;2023-08-30T02:58:02;16.67;;;8.88;;
65558;SDS011;52203;51.998;5.140;2023-08-30T03:00:28;18.42;;;9.35;;
65558;SDS011;52203;51.998;5.140;2023-08-30T03:02:53;17.15;;;8.55;;
65558;SDS011;52203;51.998;5.140;2023-08-30T03:05:19;16.13;;;8.15;;
65558;SDS011;52203;51.998;5.140;2023-08-30T03:07:44;17.90;;;8.40;;
65558;SDS011;52203;51.998;5.140;2023-08-30T03:10:11;15.63;;;8.13;;
65558;SDS011;52203;51.998;5.140;2023-08-30T03:12:37;15.80;;;8.27;;
65558;SDS011;52203;51.998;5.140;2023-08-30T03:15:03;17.90;;;9.55;;
65558;SDS011;52203;51.998;5.140;2023-08-30T03:17:30;18.15;;;8.18;;
65558;SDS011;52203;51.998;5.140;2023-08-30T03:19:56;15.80;;;8.77;;
65558;SDS011;52203;51.998;5.140;2023-08-30T03:22:21;17.60;;;9.02;;
65558;SDS011;52203;51.998;5.140;2023-08-30T03:24:47;17.70;;;8.73;;
65558;SDS011;52203;51.998;5.140;2023-08-30T03:27:14;16.17;;;8.57;;
65558;SDS011;52203;51.998;5.140;2023-08-30T03:29:40;17.83;;;9.50;;
65558;SDS011;52203;51.998;5.140;2023-08-30T03:32:06;17.40;;;8.68;;
65558;SDS011;52203;51.998;5.140;2023-08-30T03:34:31;16.10;;;7.88;;
65558;SDS011;52203;51.998;5.140;2023-08-30T03:36:57;19.00;;;8.55;;
65558;SDS011;52203;51.998;5.140;2023-08-30T03:39:23;15.85;;;7.78;;
65558;SDS011;52203;51.998;5.140;2023-08-30T03:41:49;17.65;;;7.93;;
65558;SDS011;52203;51.998;5.140;2023-08-30T03:44:15;18.08;;;8.70;;
65558;SDS011;52203;51.998;5.140;2023-08-30T03:46:40;15.73;;;8.30;;
65558;SDS011;52203;51.998;5.140;2023-08-30T03:49:06;16.58;;;8.00;;
65558;SDS011;52203;51.998;5.140;2023-08-30T03:51:32;17.27;;;8.52;;
65558;SDS011;52203;51.998;5.140;2023-08-30T03:53:57;16.92;;;8.18;;
65558;SDS011;52203;51.998;5.140;2023-08-30T03:56:23;17.50;;;8.90;;
65558;SDS011;52203;51.998;5.140;2023-08-30T03:58:48;17.85;;;8.55;;
65558;SDS011;52203;51.998;5.140;2023-08-30T04:01:14;18.15;;;8.20;;
65558;SDS011;52203;51.998;5.140;2023-08-30T04:03:39;14.18;;;7.88;;
65558;SDS011;52203;51.998;5.140;2023-08-30T04:06:06;15.30;;;8.27;;
65558;SDS011;52203;51.998;5.140;2023-08-30T04:08:31;19.08;;;8.07;;
65558;SDS011;52203;51.998;5.140;2023-08-30T04:10:57;16.55;;;8.63;;
65558;SDS011;52203;51.998;5.140;2023-08-30T04:13:22;17.80;;;8.52;;
65558;SDS011;52203;51.998;5.140;2023-08-30T04:15:48;18.75;;;8.52;;
65558;SDS011;52203;51.998;5.140;2023-08-30T04:18:14;16.27;;;8.60;;
65558;SDS011;52203;51.998;5.140;2023-08-30T04:20:46;16.55;;;7.75;;
65558;SDS011;52203;51.998;5.140;2023-08-30T04:23:12;17.27;;;8.30;;
65558;SDS011;52203;51.998;5.140;2023-08-30T04:25:38;15.32;;;7.80;;
65558;SDS011;52203;51.998;5.140;2023-08-30T04:28:04;15.90;;;7.65;;
65558;SDS011;52203;51.998;5.140;2023-08-30T04:30:30;16.73;;;8.15;;
65558;SDS011;52203;51.998;5.140;2023-08-30T04:32:56;15.23;;;7.80;;
65558;SDS011;52203;51.998;5.140;2023-08-30T04:35:21;17.55;;;8.20;;
65558;SDS011;52203;51.998;5.140;2023-08-30T04:37:47;16.88;;;8.35;;
65558;SDS011;52203;51.998;5.140;2023-08-30T04:40:15;15.88;;;8.05;;
65558;SDS011;52203;51.998;5.140;2023-08-30T04:42:42;16.77;;;7.97;;
65558;SDS011;52203;51.998;5.140;2023-08-30T04:45:08;18.95;;;8.73;;
65558;SDS011;52203;51.998;5.140;2023-08-30T04:47:35;15.40;;;8.23;;
65558;SDS011;52203;51.998;5.140;2023-08-30T04:50:00;15.27;;;8.27;;
65558;SDS011;52203;51.998;5.140;2023-08-30T04:52:26;17.73;;;8.30;;
65558;SDS011;52203;51.998;5.140;2023-08-30T04:54:51;15.27;;;8.10;;
65558;SDS011;52203;51.998;5.140;2023-08-30T04:57:19;17.35;;;8.43;;
65558;SDS011;52203;51.998;5.140;2023-08-30T04:59:44;17.65;;;8.55;;
65558;SDS011;52203;51.998;5.140;2023-08-30T05:02:11;17.42;;;8.30;;
65558;SDS011;52203;51.998;5.140;2023-08-30T05:04:37;16.77;;;8.80;;
65558;SDS011;52203;51.998;5.140;2023-08-30T05:07:03;15.82;;;8.07;;
65558;SDS011;52203;51.998;5.140;2023-08-30T05:09:29;15.95;;;7.57;;
65558;SDS011;52203;51.998;5.140;2023-08-30T05:11:55;15.35;;;8.43;;
65558;SDS011;52203;51.998;5.140;2023-08-30T05:14:21;16.65;;;8.40;;
65558;SDS011;52203;51.998;5.140;2023-08-30T05:16:48;17.50;;;8.38;;
65558;SDS011;52203;51.998;5.140;2023-08-30T05:19:16;13.77;;;7.38;;
65558;SDS011;52203;51.998;5.140;2023-08-30T05:21:42;19.58;;;8.88;;
65558;SDS011;52203;51.998;5.140;2023-08-30T05:24:08;17.58;;;8.45;;
65558;SDS011;52203;51.998;5.140;2023-08-30T05:26:35;15.63;;;8.50;;
65558;SDS011;52203;51.998;5.140;2023-08-30T05:29:01;15.50;;;8.15;;
65558;SDS011;52203;51.998;5.140;2023-08-30T05:31:27;18.15;;;8.20;;
65558;SDS011;52203;51.998;5.140;2023-08-30T05:33:53;17.15;;;8.70;;
65558;SDS011;52203;51.998;5.140;2023-08-30T05:36:18;18.20;;;8.40;;
65558;SDS011;52203;51.998;5.140;2023-08-30T05:38:44;16.45;;;8.98;;
65558;SDS011;52203;51.998;5.140;2023-08-30T05:41:09;16.90;;;8.35;;
65558;SDS011;52203;51.998;5.140;2023-08-30T05:43:35;17.40;;;8.68;;
65558;SDS011;52203;51.998;5.140;2023-08-30T05:46:00;17.52;;;7.85;;
65558;SDS011;52203;51.998;5.140;2023-08-30T05:48:30;14.68;;;8.52;;
65558;SDS011;52203;51.998;5.140;2023-08-30T05:50:56;17.65;;;7.65;;
65558;SDS011;52203;51.998;5.140;2023-08-30T05:53:22;16.65;;;7.93;;
65558;SDS011;52203;51.998;5.140;2023-08-30T05:55:48;15.00;;;8.20;;
65558;SDS011;52203;51.998;5.140;2023-08-30T05:58:13;15.63;;;7.82;;
65558;SDS011;52203;51.998;5.140;2023-08-30T06:00:40;15.98;;;8.35;;
65558;SDS011;52203;51.998;5.140;2023-08-30T06:03:06;14.43;;;7.68;;
65558;SDS011;52203;51.998;5.140;2023-08-30T06:05:32;16.20;;;8.57;;
65558;SDS011;52203;51.998;5.140;2023-08-30T06:07:58;14.45;;;7.38;;
65558;SDS011;52203;51.998;5.140;2023-08-30T06:10:24;14.57;;;8.18;;
65558;SDS011;52203;51.998;5.140;2023-08-30T06:12:50;16.25;;;8.27;;
65558;SDS011;52203;51.998;5.140;2023-08-30T06:15:15;15.88;;;7.88;;
65558;SDS011;52203;51.998;5.140;2023-08-30T06:17:41;16.63;;;8.32;;
65558;SDS011;52203;51.998;5.140;2023-08-30T06:20:07;16.05;;;7.80;;
65558;SDS011;52203;51.998;5.140;2023-08-30T06:22:33;17.27;;;8.77;;
65558;SDS011;52203;51.998;5.140;2023-08-30T06:24:58;18.95;;;9.63;;
65558;SDS011;52203;51.998;5.140;2023-08-30T06:27:24;18.17;;;8.02;;
65558;SDS011;52203;51.998;5.140;2023-08-30T06:29:49;17.30;;;8.73;;
65558;SDS011;52203;51.998;5.140;2023-08-30T06:32:15;15.30;;;7.72;;
65558;SDS011;52203;51.998;5.140;2023-08-30T06:34:42;17.92;;;8.27;;
65558;SDS011;52203;51.998;5.140;2023-08-30T06:37:07;16.08;;;8.60;;
65558;SDS011;52203;51.998;5.140;2023-08-30T06:39:33;15.95;;;8.25;;
65558;SDS011;52203;51.998;5.140;2023-08-30T06:42:01;15.38;;;7.90;;
65558;SDS011;52203;51.998;5.140;2023-08-30T06:44:27;15.73;;;8.40;;
65558;SDS011;52203;51.998;5.140;2023-08-30T06:46:53;14.20;;;8.45;;
65558;SDS011;52203;51.998;5.140;2023-08-30T06:49:19;17.08;;;8.82;;
65558;SDS011;52203;51.998;5.140;2023-08-30T06:51:45;15.93;;;8.43;;
65558;SDS011;52203;51.998;5.140;2023-08-30T06:54:10;15.05;;;8.07;;
65558;SDS011;52203;51.998;5.140;2023-08-30T06:56:36;17.60;;;9.05;;
65558;SDS011;52203;51.998;5.140;2023-08-30T06:59:01;17.27;;;8.45;;
65558;SDS011;52203;51.998;5.140;2023-08-30T07:01:27;13.45;;;7.10;;
65558;SDS011;52203;51.998;5.140;2023-08-30T07:03:53;15.10;;;7.43;;
65558;SDS011;52203;51.998;5.140;2023-08-30T07:06:18;13.88;;;7.45;;
65558;SDS011;52203;51.998;5.140;2023-08-30T07:08:44;13.15;;;7.28;;
65558;SDS011;52203;51.998;5.140;2023-08-30T07:11:09;17.17;;;7.82;;
65558;SDS011;52203;51.998;5.140;2023-08-30T07:13:35;12.77;;;7.25;;
65558;SDS011;52203;51.998;5.140;2023-08-30T07:16:01;12.65;;;7.30;;
65558;SDS011;52203;51.998;5.140;2023-08-30T07:18:26;13.25;;;7.03;;
65558;SDS011;52203;51.998;5.140;2023-08-30T07:20:52;16.05;;;7.20;;
65558;SDS011;52203;51.998;5.140;2023-08-30T07:23:18;13.63;;;6.72;;
65558;SDS011;52203;51.998;5.140;2023-08-30T07:25:43;13.35;;;7.03;;
65558;SDS011;52203;51.998;5.140;2023-08-30T07:28:10;13.60;;;7.20;;
65558;SDS011;52203;51.998;5.140;2023-08-30T07:30:37;15.35;;;7.32;;
65558;SDS011;52203;51.998;5.140;2023-08-30T07:33:03;14.25;;;7.38;;
65558;SDS011;52203;51.998;5.140;2023-08-30T07:35:30;11.55;;;6.70;;
65558;SDS011;52203;51.998;5.140;2023-08-30T07:37:58;13.05;;;6.95;;
65558;SDS011;52203;51.998;5.140;2023-08-30T07:40:23;13.02;;;6.95;;
65558;SDS011;52203;51.998;5.140;2023-08-30T07:42:51;12.13;;;6.53;;
65558;SDS011;52203;51.998;5.140;2023-08-30T07:45:17;12.02;;;6.18;;
65558;SDS011;52203;51.998;5.140;2023-08-30T07:47:43;12.13;;;6.43;;
65558;SDS011;52203;51.998;5.140;2023-08-30T07:50:08;11.82;;;6.50;;
65558;SDS011;52203;51.998;5.140;2023-08-30T07:52:34;12.65;;;6.03;;
65558;SDS011;52203;51.998;5.140;2023-08-30T07:55:00;12.30;;;6.18;;
65558;SDS011;52203;51.998;5.140;2023-08-30T07:57:25;11.50;;;6.10;;
65558;SDS011;52203;51.998;5.140;2023-08-30T07:59:51;10.65;;;6.22;;
65558;SDS011;52203;51.998;5.140;2023-08-30T08:02:17;9.50;;;5.72;;
65558;SDS011;52203;51.998;5.140;2023-08-30T08:04:43;11.20;;;5.90;;
65558;SDS011;52203;51.998;5.140;2023-08-30T08:07:08;9.93;;;5.32;;
65558;SDS011;52203;51.998;5.140;2023-08-30T08:09:34;10.85;;;5.70;;
65558;SDS011;52203;51.998;5.140;2023-08-30T08:11:59;11.02;;;6.07;;
65558;SDS011;52203;51.998;5.140;2023-08-30T08:14:25;9.13;;;4.53;;
65558;SDS011;52203;51.998;5.140;2023-08-30T08:16:50;10.60;;;5.38;;
65558;SDS011;52203;51.998;5.140;2023-08-30T08:19:16;11.18;;;6.20;;
65558;SDS011;52203;51.998;5.140;2023-08-30T08:21:42;12.50;;;6.28;;
65558;SDS011;52203;51.998;5.140;2023-08-30T08:24:07;13.70;;;6.28;;
65558;SDS011;52203;51.998;5.140;2023-08-30T08:26:33;9.95;;;5.50;;
65558;SDS011;52203;51.998;5.140;2023-08-30T08:28:58;10.40;;;5.43;;
65558;SDS011;52203;51.998;5.140;2023-08-30T08:31:25;12.43;;;6.47;;
65558;SDS011;52203;51.998;5.140;2023-08-30T08:33:51;10.32;;;5.65;;
65558;SDS011;52203;51.998;5.140;2023-08-30T08:36:30;10.68;;;5.80;;
65558;SDS011;52203;51.998;5.140;2023-08-30T08:38:55;12.05;;;6.88;;
65558;SDS011;52203;51.998;5.140;2023-08-30T08:41:21;10.48;;;5.80;;
65558;SDS011;52203;51.998;5.140;2023-08-30T08:43:52;10.10;;;5.72;;
65558;SDS011;52203;51.998;5.140;2023-08-30T08:46:17;9.25;;;5.40;;
65558;SDS011;52203;51.998;5.140;2023-08-30T08:48:45;12.52;;;6.22;;
65558;SDS011;52203;51.998;5.140;2023-08-30T08:51:13;11.30;;;6.63;;
65558;SDS011;52203;51.998;5.140;2023-08-30T08:53:39;11.18;;;6.78;;
65558;SDS011;52203;51.998;5.140;2023-08-30T08:56:06;13.38;;;6.97;;
65558;SDS011;52203;51.998;5.140;2023-08-30T08:58:34;13.80;;;6.72;;
65558;SDS011;52203;51.998;5.140;2023-08-30T09:01:03;12.32;;;7.10;;
65558;SDS011;52203;51.998;5.140;2023-08-30T09:03:30;12.93;;;7.88;;
65558;SDS011;52203;51.998;5.140;2023-08-30T09:05:55;13.23;;;7.40;;
65558;SDS011;52203;51.998;5.140;2023-08-30T09:08:21;13.80;;;8.02;;
65558;SDS011;52203;51.998;5.140;2023-08-30T09:10:47;13.80;;;7.65;;
65558;SDS011;52203;51.998;5.140;2023-08-30T09:13:15;11.30;;;7.18;;
65558;SDS011;52203;51.998;5.140;2023-08-30T09:15:41;13.00;;;7.10;;
65558;SDS011;52203;51.998;5.140;2023-08-30T09:18:16;10.65;;;7.13;;
65558;SDS011;52203;51.998;5.140;2023-08-30T09:20:42;13.65;;;6.90;;
65558;SDS011;52203;51.998;5.140;2023-08-30T09:23:18;12.70;;;7.13;;
65558;SDS011;52203;51.998;5.140;2023-08-30T09:25:46;11.07;;;7.18;;
65558;SDS011;52203;51.998;5.140;2023-08-30T09:28:12;11.75;;;6.93;;
65558;SDS011;52203;51.998;5.140;2023-08-30T09:30:38;12.13;;;6.82;;
65558;SDS011;52203;51.998;5.140;2023-08-30T09:33:04;11.45;;;7.40;;
65558;SDS011;52203;51.998;5.140;2023-08-30T09:35:30;12.65;;;7.63;;
65558;SDS011;52203;51.998;5.140;2023-08-30T09:37:56;15.95;;;8.23;;
65558;SDS011;52203;51.998;5.140;2023-08-30T09:40:22;12.32;;;7.55;;
65558;SDS011;52203;51.998;5.140;2023-08-30T09:42:48;12.00;;;7.85;;
65558;SDS011;52203;51.998;5.140;2023-08-30T09:45:23;14.50;;;8.63;;
65558;SDS011;52203;51.998;5.140;2023-08-30T09:47:49;12.50;;;7.45;;
65558;SDS011;52203;51.998;5.140;2023-08-30T09:50:19;12.38;;;7.63;;
65558;SDS011;52203;51.998;5.140;2023-08-30T09:52:46;13.27;;;8.57;;
65558;SDS011;52203;51.998;5.140;2023-08-30T09:55:14;13.20;;;8.73;;
65558;SDS011;52203;51.998;5.140;2023-08-30T09:57:40;11.55;;;8.20;;
65558;SDS011;52203;51.998;5.140;2023-08-30T10:00:09;13.52;;;8.50;;
65558;SDS011;52203;51.998;5.140;2023-08-30T10:02:37;11.00;;;7.47;;
65558;SDS011;52203;51.998;5.140;2023-08-30T10:05:07;8.88;;;6.55;;
65558;SDS011;52203;51.998;5.140;2023-08-30T10:07:34;8.98;;;6.32;;
65558;SDS011;52203;51.998;5.140;2023-08-30T10:10:02;8.68;;;6.22;;
65558;SDS011;52203;51.998;5.140;2023-08-30T10:12:31;7.55;;;5.50;;
65558;SDS011;52203;51.998;5.140;2023-08-30T10:14:57;7.53;;;5.28;;
65558;SDS011;52203;51.998;5.140;2023-08-30T10:17:23;7.65;;;5.65;;
65558;SDS011;52203;51.998;5.140;2023-08-30T10:19:56;7.43;;;5.05;;
65558;SDS011;52203;51.998;5.140;2023-08-30T10:22:23;8.20;;;5.20;;
65558;SDS011;52203;51.998;5.140;2023-08-30T10:24:57;6.13;;;4.32;;
65558;SDS011;52203;51.998;5.140;2023-08-30T10:27:26;6.53;;;4.47;;
65558;SDS011;52203;51.998;5.140;2023-08-30T10:29:54;4.78;;;3.55;;
65558;SDS011;52203;51.998;5.140;2023-08-30T10:32:21;7.22;;;3.85;;
65558;SDS011;52203;51.998;5.140;2023-08-30T10:34:47;5.82;;;3.63;;
65558;SDS011;52203;51.998;5.140;2023-08-30T10:37:14;10.90;;;4.13;;
65558;SDS011;52203;51.998;5.140;2023-08-30T10:39:40;6.95;;;3.33;;
65558;SDS011;52203;51.998;5.140;2023-08-30T10:42:11;6.68;;;3.30;;
65558;SDS011;52203;51.998;5.140;2023-08-30T10:47:22;7.97;;;3.10;;
65558;SDS011;52203;51.998;5.140;2023-08-30T10:49:48;6.53;;;2.95;;
65558;SDS011;52203;51.998;5.140;2023-08-30T10:52:14;5.93;;;2.80;;
65558;SDS011;52203;51.998;5.140;2023-08-30T10:54:40;7.47;;;2.55;;
65558;SDS011;52203;51.998;5.140;2023-08-30T10:57:12;6.15;;;2.50;;
65558;SDS011;52203;51.998;5.140;2023-08-30T11:00:03;6.03;;;2.90;;
65558;SDS011;52203;51.998;5.140;2023-08-30T11:02:38;8.10;;;2.83;;
65558;SDS011;52203;51.998;5.140;2023-08-30T11:05:08;5.45;;;2.70;;
65558;SDS011;52203;51.998;5.140;2023-08-30T11:07:34;7.30;;;2.38;;
65558;SDS011;52203;51.998;5.140;2023-08-30T11:10:00;5.18;;;2.60;;
65558;SDS011;52203;51.998;5.140;2023-08-30T11:12:25;6.38;;;2.50;;
65558;SDS011;52203;51.998;5.140;2023-08-30T11:14:52;6.90;;;2.90;;
65558;SDS011;52203;51.998;5.140;2023-08-30T11:17:20;7.35;;;2.67;;
65558;SDS011;52203;51.998;5.140;2023-08-30T11:19:45;6.82;;;2.80;;
65558;SDS011;52203;51.998;5.140;2023-08-30T11:22:14;7.28;;;2.85;;
65558;SDS011;52203;51.998;5.140;2023-08-30T11:24:41;7.47;;;2.90;;
65558;SDS011;52203;51.998;5.140;2023-08-30T11:27:08;8.23;;;2.80;;
65558;SDS011;52203;51.998;5.140;2023-08-30T11:29:34;5.97;;;2.95;;
65558;SDS011;52203;51.998;5.140;2023-08-30T11:32:00;6.43;;;2.95;;
65558;SDS011;52203;51.998;5.140;2023-08-30T11:34:26;5.40;;;2.63;;
65558;SDS011;52203;51.998;5.140;2023-08-30T11:36:51;6.05;;;2.78;;
65558;SDS011;52203;51.998;5.140;2023-08-30T11:39:17;5.60;;;2.60;;
65558;SDS011;52203;51.998;5.140;2023-08-30T11:41:43;9.15;;;2.72;;
65558;SDS011;52203;51.998;5.140;2023-08-30T11:44:09;8.77;;;2.70;;
65558;SDS011;52203;51.998;5.140;2023-08-30T11:46:35;8.68;;;3.03;;
65558;SDS011;52203;51.998;5.140;2023-08-30T11:49:00;7.57;;;3.15;;
65558;SDS011;52203;51.998;5.140;2023-08-30T11:51:27;9.70;;;2.80;;
65558;SDS011;52203;51.998;5.140;2023-08-30T11:53:54;9.90;;;3.20;;
65558;SDS011;52203;51.998;5.140;2023-08-30T11:56:21;7.85;;;2.53;;
65558;SDS011;52203;51.998;5.140;2023-08-30T11:58:47;12.35;;;3.25;;
65558;SDS011;52203;51.998;5.140;2023-08-30T12:01:13;8.80;;;2.80;;
65558;SDS011;52203;51.998;5.140;2023-08-30T12:03:39;7.85;;;2.70;;
65558;SDS011;52203;51.998;5.140;2023-08-30T12:06:11;6.03;;;2.50;;
65558;SDS011;52203;51.998;5.140;2023-08-30T12:08:37;7.97;;;2.92;;
65558;SDS011;52203;51.998;5.140;2023-08-30T12:11:03;9.00;;;2.70;;
65558;SDS011;52203;51.998;5.140;2023-08-30T12:13:29;11.23;;;3.05;;
65558;SDS011;52203;51.998;5.140;2023-08-30T12:15:57;6.93;;;2.83;;
65558;SDS011;52203;51.998;5.140;2023-08-30T12:18:24;5.93;;;2.40;;
65558;SDS011;52203;51.998;5.140;2023-08-30T12:23:23;8.52;;;2.40;;
65558;SDS011;52203;51.998;5.140;2023-08-30T12:26:08;7.28;;;2.00;;
65558;SDS011;52203;51.998;5.140;2023-08-30T12:28:35;7.13;;;1.83;;
65558;SDS011;52203;51.998;5.140;2023-08-30T12:31:02;5.38;;;1.80;;
65558;SDS011;52203;51.998;5.140;2023-08-30T12:33:32;6.45;;;1.65;;
65558;SDS011;52203;51.998;5.140;2023-08-30T12:35:58;5.70;;;1.63;;
65558;SDS011;52203;51.998;5.140;2023-08-30T12:38:24;4.85;;;1.75;;
65558;SDS011;52203;51.998;5.140;2023-08-30T12:40:50;4.93;;;1.55;;
65558;SDS011;52203;51.998;5.140;2023-08-30T12:43:18;5.68;;;1.70;;
65558;SDS011;52203;51.998;5.140;2023-08-30T12:45:47;6.63;;;1.55;;
65558;SDS011;52203;51.998;5.140;2023-08-30T12:48:14;6.32;;;1.50;;
65558;SDS011;52203;51.998;5.140;2023-08-30T12:50:41;9.02;;;2.20;;
65558;SDS011;52203;51.998;5.140;2023-08-30T12:53:09;8.32;;;1.95;;
65558;SDS011;52203;51.998;5.140;2023-08-30T12:55:35;5.47;;;1.63;;
65558;SDS011;52203;51.998;5.140;2023-08-30T12:58:02;7.47;;;1.95;;
65558;SDS011;52203;51.998;5.140;2023-08-30T13:00:28;6.82;;;1.95;;
65558;SDS011;52203;51.998;5.140;2023-08-30T13:02:54;7.50;;;1.80;;
65558;SDS011;52203;51.998;5.140;2023-08-30T13:05:20;4.65;;;1.70;;
65558;SDS011;52203;51.998;5.140;2023-08-30T13:07:46;5.80;;;2.30;;
65558;SDS011;52203;51.998;5.140;2023-08-30T13:10:12;5.32;;;2.15;;
65558;SDS011;52203;51.998;5.140;2023-08-30T13:12:37;5.63;;;1.92;;
65558;SDS011;52203;51.998;5.140;2023-08-30T13:15:03;6.38;;;2.10;;
65558;SDS011;52203;51.998;5.140;2023-08-30T13:17:29;6.40;;;1.80;;
65558;SDS011;52203;51.998;5.140;2023-08-30T13:19:55;8.07;;;2.45;;
65558;SDS011;52203;51.998;5.140;2023-08-30T13:22:23;4.18;;;1.70;;
65558;SDS011;52203;51.998;5.140;2023-08-30T13:24:49;5.97;;;2.53;;
65558;SDS011;52203;51.998;5.140;2023-08-30T13:27:14;8.30;;;2.47;;
65558;SDS011;52203;51.998;5.140;2023-08-30T13:29:40;6.75;;;1.98;;
65558;SDS011;52203;51.998;5.140;2023-08-30T13:32:05;5.80;;;2.05;;
65558;SDS011;52203;51.998;5.140;2023-08-30T13:34:31;4.18;;;1.50;;
65558;SDS011;52203;51.998;5.140;2023-08-30T13:36:56;3.05;;;1.33;;
65558;SDS011;52203;51.998;5.140;2023-08-30T13:39:22;5.38;;;1.65;;
65558;SDS011;52203;51.998;5.140;2023-08-30T13:41:48;6.80;;;1.73;;
65558;SDS011;52203;51.998;5.140;2023-08-30T13:44:14;7.35;;;1.67;;
65558;SDS011;52203;51.998;5.140;2023-08-30T13:46:40;5.15;;;1.83;;
65558;SDS011;52203;51.998;5.140;2023-08-30T13:49:05;6.05;;;2.13;;
65558;SDS011;52203;51.998;5.140;2023-08-30T13:51:31;5.65;;;1.63;;
65558;SDS011;52203;51.998;5.140;2023-08-30T13:53:57;6.32;;;1.90;;
65558;SDS011;52203;51.998;5.140;2023-08-30T13:56:23;5.15;;;1.90;;
65558;SDS011;52203;51.998;5.140;2023-08-30T13:58:49;6.32;;;2.05;;
65558;SDS011;52203;51.998;5.140;2023-08-30T14:01:15;6.47;;;1.98;;
65558;SDS011;52203;51.998;5.140;2023-08-30T14:03:41;3.92;;;1.85;;
65558;SDS011;52203;51.998;5.140;2023-08-30T14:06:08;4.82;;;1.63;;
65558;SDS011;52203;51.998;5.140;2023-08-30T14:08:33;4.32;;;1.48;;
65558;SDS011;52203;51.998;5.140;2023-08-30T14:10:59;3.22;;;1.45;;
65558;SDS011;52203;51.998;5.140;2023-08-30T14:13:25;5.35;;;1.45;;
65558;SDS011;52203;51.998;5.140;2023-08-30T14:15:53;3.08;;;1.50;;
65558;SDS011;52203;51.998;5.140;2023-08-30T14:18:18;5.55;;;1.60;;
65558;SDS011;52203;51.998;5.140;2023-08-30T14:20:44;5.00;;;1.58;;
65558;SDS011;52203;51.998;5.140;2023-08-30T14:23:10;4.05;;;1.58;;
65558;SDS011;52203;51.998;5.140;2023-08-30T14:25:36;4.28;;;1.67;;
65558;SDS011;52203;51.998;5.140;2023-08-30T14:28:02;4.47;;;1.67;;
65558;SDS011;52203;51.998;5.140;2023-08-30T14:30:29;5.95;;;2.33;;
65558;SDS011;52203;51.998;5.140;2023-08-30T14:32:54;4.85;;;2.10;;
65558;SDS011;52203;51.998;5.140;2023-08-30T14:35:20;5.00;;;2.30;;
65558;SDS011;52203;51.998;5.140;2023-08-30T14:37:46;8.07;;;2.30;;
65558;SDS011;52203;51.998;5.140;2023-08-30T14:40:13;9.27;;;2.40;;
65558;SDS011;52203;51.998;5.140;2023-08-30T14:42:39;4.75;;;2.03;;